Jeddah/Abdul Aziz, Saudi Arabia
Current Conditions -  °F | °C
As of 3:00 PM on Sunday 25 Jan 2015 (Local Time) from OEJN Reporting Station
Scattered Clouds Scattered Clouds  
Wind Chill: 88°   Ceiling: Unl
Heat Index: 88°   Visibility: 6mi
Dew Point: 63°   Wind: 14mph
Humidity: 43%   Direction: 190°S
Pressure: 29.88"   Gusts: NA
Location:  21.67°N, 39.15°E
Report Text: OEJN 251200Z 19012KT 9999 SCT040 31/17 Q1012 NOSIG
Loading
Personal Weather Stations






























Interactive Weather Map New forecast layout! Learn more

10-Day Weather Forecast

Advertisements
Track Severe Weather on mobile